Time;durP1;ratioP1;P1;durP2;ratioP2;P2;SDS_P1;SDS_P2;PMS_P1;PMS_P2;Temp;Humidity;BMP_temperature;BMP_pressure;BME280_temperature;BME280_humidity;BME280_pressure;Samples;Min_cycle;Max_cycle;Signal;HPM_P1;HPM_P2
2023/08/30 00:02:04;;;;;;;9.27;4.05;;;;;;;16.26;100.00;100039.53;5038616;28;20485;-77
2023/08/30 00:04:29;;;;;;;10.02;4.15;;;;;;;16.24;100.00;100033.47;5021983;28;20076;-77
2023/08/30 00:06:55;;;;;;;8.18;4.00;;;;;;;16.19;100.00;100030.88;5005146;28;20030;-77
2023/08/30 00:09:20;;;;;;;7.75;4.07;;;;;;;16.15;100.00;100029.91;5038342;28;20144;-77
2023/08/30 00:11:46;;;;;;;7.88;4.50;;;;;;;16.12;100.00;100029.78;5022200;28;20057;-77
2023/08/30 00:14:11;;;;;;;6.50;3.75;;;;;;;16.09;100.00;100026.50;5021874;28;20025;-77
2023/08/30 00:16:38;;;;;;;7.55;4.05;;;;;;;16.04;100.00;100028.69;5039358;28;20036;-77
2023/08/30 00:19:03;;;;;;;9.07;4.45;;;;;;;16.02;100.00;100020.63;5038198;28;20493;-77
2023/08/30 00:21:29;;;;;;;8.48;4.13;;;;;;;15.97;100.00;100023.66;5038225;28;20096;-77
2023/08/30 00:23:54;;;;;;;8.00;4.53;;;;;;;15.98;100.00;100016.06;5018247;28;20617;-77
2023/08/30 00:26:20;;;;;;;6.65;3.90;;;;;;;15.94;100.00;100012.31;5046214;28;20494;-77
2023/08/30 00:28:45;;;;;;;7.97;4.30;;;;;;;15.90;100.00;100014.13;5005211;28;20059;-77
2023/08/30 00:31:11;;;;;;;7.07;3.83;;;;;;;15.88;100.00;100014.50;5001490;28;20093;-77
2023/08/30 00:33:37;;;;;;;9.52;3.85;;;;;;;15.85;100.00;100001.16;5036075;28;20033;-77
2023/08/30 00:36:03;;;;;;;7.82;4.50;;;;;;;15.83;100.00;100001.50;4986135;28;20097;-77
2023/08/30 00:38:29;;;;;;;6.82;4.00;;;;;;;15.81;100.00;99994.63;5000104;28;20061;-77
2023/08/30 00:40:55;;;;;;;6.65;4.03;;;;;;;15.77;100.00;99990.88;5029594;28;20046;-77
2023/08/30 00:43:20;;;;;;;7.15;3.88;;;;;;;15.78;100.00;99986.91;5038277;28;20527;-77
2023/08/30 00:45:46;;;;;;;6.03;3.80;;;;;;;15.76;100.00;99983.63;5038371;28;20030;-77
2023/08/30 00:48:11;;;;;;;10.27;4.50;;;;;;;15.74;100.00;99981.19;5001759;28;20029;-77
2023/08/30 00:50:37;;;;;;;6.97;3.90;;;;;;;15.72;100.00;99977.91;5009916;28;20033;-77
2023/08/30 00:53:05;;;;;;;7.60;4.20;;;;;;;15.71;100.00;99979.06;5020854;28;20033;-77
2023/08/30 00:55:34;;;;;;;7.65;3.90;;;;;;;15.72;100.00;99974.28;5037393;28;20113;-77
2023/08/30 00:58:01;;;;;;;8.18;4.10;;;;;;;15.71;100.00;99973.47;5022781;28;20030;-77
2023/08/30 01:00:30;;;;;;;7.22;3.88;;;;;;;15.67;100.00;99975.25;5028752;28;20382;-77
2023/08/30 01:02:56;;;;;;;7.07;3.70;;;;;;;15.67;100.00;99978.06;5021103;28;20025;-77
2023/08/30 01:05:22;;;;;;;6.47;3.97;;;;;;;15.70;100.00;99977.41;5004407;28;20029;-77
2023/08/30 01:07:49;;;;;;;7.03;3.72;;;;;;;15.70;100.00;99974.59;5015994;28;20105;-77
2023/08/30 01:10:14;;;;;;;6.80;3.70;;;;;;;15.70;100.00;99974.59;4993853;28;20085;-77
2023/08/30 01:12:42;;;;;;;8.20;4.40;;;;;;;15.69;100.00;99967.38;5020639;28;20474;-77
2023/08/30 01:15:21;;;;;;;6.97;4.07;;;;;;;15.68;100.00;99959.28;5037406;28;20580;-77
2023/08/30 01:17:51;;;;;;;6.72;4.32;;;;;;;15.69;100.00;99967.38;5025268;28;20033;-77
2023/08/30 01:20:18;;;;;;;7.82;3.75;;;;;;;15.69;100.00;99961.78;5004210;28;20039;-77
2023/08/30 01:22:59;;;;;;;7.30;3.97;;;;;;;15.70;100.00;99966.22;5004044;28;20437;-77
2023/08/30 01:25:28;;;;;;;8.25;3.90;;;;;;;15.69;100.00;99964.59;5034433;28;20036;-77
2023/08/30 01:27:53;;;;;;;6.55;3.45;;;;;;;15.70;100.00;99960.59;5036800;28;20108;-77
2023/08/30 01:30:19;;;;;;;9.55;4.25;;;;;;;15.72;100.00;99963.91;5024425;28;20052;-77
2023/08/30 01:32:46;;;;;;;6.82;4.05;;;;;;;15.71;100.00;99962.28;5028910;28;20108;-77
2023/08/30 01:35:11;;;;;;;8.30;4.20;;;;;;;15.72;100.00;99954.69;5016652;28;20382;-77
2023/08/30 01:37:37;;;;;;;7.90;4.30;;;;;;;15.74;100.00;99963.53;5004502;28;20021;-77
2023/08/30 01:40:04;;;;;;;7.70;3.90;;;;;;;15.75;100.00;99968.00;5017935;28;20033;-77
2023/08/30 01:42:30;;;;;;;7.47;4.32;;;;;;;15.73;100.00;99957.13;5030400;28;20083;-78
2023/08/30 01:44:57;;;;;;;6.80;4.03;;;;;;;15.73;100.00;99965.53;5048225;28;20037;-77
2023/08/30 01:47:24;;;;;;;9.32;3.92;;;;;;;15.75;100.00;99966.00;5037734;28;20383;-78
2023/08/30 01:49:49;;;;;;;6.95;4.32;;;;;;;15.76;100.00;99973.22;5035840;28;20030;-78
2023/08/30 01:52:14;;;;;;;7.38;3.90;;;;;;;15.74;100.00;99972.78;5040529;28;20033;-77
2023/08/30 01:54:40;;;;;;;6.07;3.63;;;;;;;15.73;100.00;99964.72;5036734;28;20385;-77
2023/08/30 01:57:05;;;;;;;7.15;3.70;;;;;;;15.72;100.00;99961.09;5016579;28;20022;-78
2023/08/30 01:59:31;;;;;;;5.28;3.83;;;;;;;15.73;100.00;99965.53;5052512;28;20021;-77
2023/08/30 02:01:57;;;;;;;7.10;3.30;;;;;;;15.76;100.00;99969.63;5023610;28;20034;-77
2023/08/30 02:04:22;;;;;;;5.10;2.80;;;;;;;15.67;100.00;99966.88;5033621;28;20025;-77
2023/08/30 02:06:50;;;;;;;4.90;2.28;;;;;;;15.68;100.00;99974.13;4986869;28;20041;-77
2023/08/30 02:09:35;;;;;;;6.03;2.30;;;;;;;15.67;100.00;99977.25;5020142;28;20091;-77
2023/08/30 02:12:01;;;;;;;4.10;2.17;;;;;;;15.62;100.00;99978.25;5048847;28;20041;-77
2023/08/30 02:14:26;;;;;;;3.75;1.70;;;;;;;15.60;100.00;99981.41;5016783;28;20036;-77
2023/08/30 02:16:52;;;;;;;3.78;1.63;;;;;;;15.64;100.00;99970.34;5016860;28;20018;-77
2023/08/30 02:19:20;;;;;;;3.72;1.60;;;;;;;15.64;100.00;99956.34;5003164;28;20045;-77
2023/08/30 02:21:46;;;;;;;3.50;1.70;;;;;;;15.64;100.00;99950.75;5020324;28;20031;-77
2023/08/30 02:24:12;;;;;;;3.42;1.58;;;;;;;15.64;100.00;99959.16;4983686;28;20121;-77
2023/08/30 02:26:37;;;;;;;4.32;1.48;;;;;;;15.63;100.00;99963.13;5019237;28;20034;-77
2023/08/30 02:29:03;;;;;;;4.13;1.70;;;;;;;15.63;100.00;99960.31;5003043;28;20068;-77
2023/08/30 02:31:29;;;;;;;3.38;1.33;;;;;;;15.62;100.00;99950.28;5036014;28;20036;-77
2023/08/30 02:33:54;;;;;;;3.28;1.50;;;;;;;15.64;100.00;99953.56;5042788;28;20029;-77
2023/08/30 02:36:19;;;;;;;2.75;1.40;;;;;;;15.60;100.00;99949.78;5008899;28;20018;-77
2023/08/30 02:38:45;;;;;;;4.75;1.30;;;;;;;15.62;100.00;99953.88;5003457;28;20033;-77
2023/08/30 02:41:12;;;;;;;4.53;1.52;;;;;;;15.62;100.00;99958.66;5000661;28;20037;-77
2023/08/30 02:43:37;;;;;;;4.20;1.40;;;;;;;15.59;100.00;99962.97;5000498;28;20026;-77
2023/08/30 02:46:04;;;;;;;4.53;1.55;;;;;;;15.60;100.00;99960.97;5046311;28;20030;-77
2023/08/30 02:48:29;;;;;;;2.63;1.40;;;;;;;15.64;100.00;99961.94;5000061;28;20026;-77
2023/08/30 02:50:55;;;;;;;2.28;1.10;;;;;;;15.60;100.00;99961.81;5030274;28;20418;-77
2023/08/30 02:53:20;;;;;;;2.78;1.25;;;;;;;15.58;100.00;99954.94;5019507;28;20511;-76
2023/08/30 02:55:47;;;;;;;4.03;1.25;;;;;;;15.62;100.00;99958.66;5035816;28;20156;-77
2023/08/30 02:58:13;;;;;;;3.67;1.27;;;;;;;15.61;100.00;99951.44;5029441;28;20030;-77
2023/08/30 03:00:38;;;;;;;3.80;1.30;;;;;;;15.59;100.00;99953.75;5012292;28;20044;-77
2023/08/30 03:03:04;;;;;;;3.35;1.33;;;;;;;15.62;100.00;99953.06;5019350;28;20025;-77
2023/08/30 03:05:29;;;;;;;4.40;1.30;;;;;;;15.61;100.00;99955.06;5035343;28;20033;-77
2023/08/30 03:07:55;;;;;;;3.47;1.17;;;;;;;15.59;100.00;99951.78;5001603;28;20034;-77
2023/08/30 03:10:20;;;;;;;3.83;1.13;;;;;;;15.61;100.00;99948.66;5030865;28;20030;-77
2023/08/30 03:12:46;;;;;;;4.50;1.40;;;;;;;15.59;100.00;99948.16;5040524;28;20033;-77
2023/08/30 03:15:11;;;;;;;4.05;1.00;;;;;;;15.61;100.00;99946.66;5026367;28;20049;-77
2023/08/30 03:17:37;;;;;;;3.20;1.20;;;;;;;15.60;100.00;99961.81;5022743;28;20420;-77
2023/08/30 03:20:05;;;;;;;2.65;1.08;;;;;;;15.61;100.00;99949.47;5039238;28;20128;-77
2023/08/30 03:22:31;;;;;;;1.80;0.90;;;;;;;15.61;100.00;99965.44;5033283;28;20026;-77
2023/08/30 03:24:57;;;;;;;4.97;1.30;;;;;;;15.62;100.00;99959.47;5009933;28;20079;-77
2023/08/30 03:27:22;;;;;;;2.97;1.10;;;;;;;15.59;100.00;99956.56;5003226;28;20030;-77
2023/08/30 03:29:48;;;;;;;3.05;1.50;;;;;;;15.59;100.00;99953.75;5032931;28;20572;-77
2023/08/30 03:32:17;;;;;;;2.03;0.85;;;;;;;15.58;100.00;99952.94;5038659;28;20029;-77
2023/08/30 03:34:46;;;;;;;2.95;1.20;;;;;;;15.57;100.00;99951.31;4988712;28;20520;-77
2023/08/30 03:37:13;;;;;;;3.50;1.08;;;;;;;15.61;100.00;99948.66;5039101;28;20025;-77
2023/08/30 03:39:39;;;;;;;4.93;1.33;;;;;;;15.56;100.00;99937.66;5038959;28;20029;-77
2023/08/30 03:42:04;;;;;;;3.22;1.00;;;;;;;15.56;100.00;99940.44;5019153;28;20037;-77
2023/08/30 03:44:30;;;;;;;4.00;1.30;;;;;;;15.56;100.00;99934.84;5036353;28;20030;-77
2023/08/30 03:46:56;;;;;;;1.95;1.20;;;;;;;15.57;100.00;99931.72;5013487;28;20038;-77
2023/08/30 03:49:22;;;;;;;2.85;1.20;;;;;;;15.55;100.00;99941.63;5004931;28;20045;-77
2023/08/30 03:51:48;;;;;;;3.05;1.02;;;;;;;15.56;100.00;99937.66;5022333;28;20444;-78
2023/08/30 03:54:16;;;;;;;2.80;1.10;;;;;;;15.55;100.00;99948.03;5022097;28;20477;-77
2023/08/30 03:56:42;;;;;;;2.67;1.33;;;;;;;15.52;100.00;99943.13;5038841;28;20029;-77
2023/08/30 03:59:07;;;;;;;1.70;0.93;;;;;;;15.53;100.00;99935.53;5009038;28;20033;-77
2023/08/30 04:01:33;;;;;;;1.63;0.95;;;;;;;15.51;100.00;99935.88;5045470;28;20033;-77
2023/08/30 04:03:58;;;;;;;4.38;1.42;;;;;;;15.50;100.00;99936.22;5025571;28;20038;-77
2023/08/30 04:06:24;;;;;;;4.22;1.48;;;;;;;15.49;100.00;99942.97;5020865;28;20034;-77
2023/08/30 04:08:49;;;;;;;3.60;1.17;;;;;;;15.48;100.00;99939.34;4986459;28;20080;-77
2023/08/30 04:11:15;;;;;;;2.08;1.10;;;;;;;15.47;100.00;99934.09;5021916;28;20477;-77
2023/08/30 04:13:41;;;;;;;2.63;1.00;;;;;;;15.47;100.00;99920.13;5038253;28;20029;-77
2023/08/30 04:16:06;;;;;;;2.13;0.80;;;;;;;15.45;100.00;99917.66;5001969;28;20029;-77
2023/08/30 04:18:31;;;;;;;4.05;1.00;;;;;;;15.46;100.00;99921.25;5012036;28;20038;-77
2023/08/30 04:20:58;;;;;;;3.03;1.13;;;;;;;15.44;100.00;99929.19;5021884;28;20033;-77
2023/08/30 04:23:23;;;;;;;4.93;1.30;;;;;;;15.46;100.00;99929.66;5031979;28;20499;-77
2023/08/30 04:25:49;;;;;;;2.67;0.93;;;;;;;15.42;100.00;99935.94;5021523;28;20211;-77
2023/08/30 04:28:14;;;;;;;2.33;0.90;;;;;;;15.45;100.00;99936.41;5018444;28;20026;-77
2023/08/30 04:30:40;;;;;;;2.95;1.08;;;;;;;15.44;100.00;99938.41;5028046;28;20053;-77
2023/08/30 04:33:05;;;;;;;1.50;1.05;;;;;;;15.42;100.00;99938.72;5046022;28;20033;-77
2023/08/30 04:35:31;;;;;;;3.28;1.20;;;;;;;15.41;100.00;99939.91;5001754;28;20096;-77
2023/08/30 04:37:58;;;;;;;1.58;0.80;;;;;;;15.39;100.00;99931.03;5018083;28;20033;-77
2023/08/30 04:40:24;;;;;;;2.00;0.98;;;;;;;15.39;100.00;99927.41;5001648;28;20044;-77
2023/08/30 04:42:49;;;;;;;3.25;1.00;;;;;;;15.36;100.00;99931.69;5026036;28;20450;-77
2023/08/30 04:45:15;;;;;;;2.15;1.10;;;;;;;15.38;100.00;99925.78;5001383;28;20021;-77
2023/08/30 04:47:42;;;;;;;2.75;0.90;;;;;;;15.37;100.00;99930.53;5018570;28;20037;-77
2023/08/30 04:50:08;;;;;;;1.67;1.00;;;;;;;15.38;100.00;99932.19;5037862;28;20033;-77
2023/08/30 04:52:34;;;;;;;2.55;0.90;;;;;;;15.37;100.00;99932.53;5020968;28;20029;-77
2023/08/30 04:54:59;;;;;;;3.10;1.10;;;;;;;15.34;100.00;99928.41;5021049;28;20394;-77
2023/08/30 04:57:25;;;;;;;2.10;1.10;;;;;;;15.31;100.00;99936.69;5021145;28;20032;-77
2023/08/30 04:59:50;;;;;;;3.38;0.90;;;;;;;15.32;100.00;99943.91;5001554;28;20030;-77
2023/08/30 05:02:16;;;;;;;1.70;0.90;;;;;;;15.29;100.00;99942.59;5037437;28;20029;-77
2023/08/30 05:04:41;;;;;;;2.40;1.00;;;;;;;15.32;100.00;99950.34;5020985;28;20034;-77
2023/08/30 05:07:07;;;;;;;5.05;1.00;;;;;;;15.30;100.00;99949.03;5020597;28;20128;-77
2023/08/30 05:09:34;;;;;;;2.28;1.00;;;;;;;15.31;100.00;99942.28;5035175;28;20032;-77
2023/08/30 05:12:00;;;;;;;1.67;0.95;;;;;;;15.28;100.00;99937.38;5030697;28;20099;-77
2023/08/30 05:14:25;;;;;;;1.63;1.00;;;;;;;15.28;100.00;99931.78;5020811;28;20112;-77
2023/08/30 05:16:51;;;;;;;2.30;0.98;;;;;;;15.26;100.00;99934.91;5036907;28;20473;-77
2023/08/30 05:19:16;;;;;;;1.40;0.93;;;;;;;15.25;100.00;99938.84;5037032;28;20049;-77
2023/08/30 05:21:43;;;;;;;1.83;0.90;;;;;;;15.26;100.00;99937.69;5002409;28;20022;-77
2023/08/30 05:24:08;;;;;;;2.67;1.00;;;;;;;15.26;100.00;99934.06;5008888;28;20033;-77
2023/08/30 05:26:34;;;;;;;3.08;1.13;;;;;;;15.23;100.00;99938.38;5026772;28;20488;-77
2023/08/30 05:28:59;;;;;;;2.80;1.15;;;;;;;15.25;100.00;99933.25;5020357;28;20033;-76
2023/08/30 05:31:24;;;;;;;4.15;1.10;;;;;;;15.26;100.00;99939.69;5016691;28;20528;-77
2023/08/30 05:33:50;;;;;;;3.45;1.00;;;;;;;15.23;100.00;99941.16;5010653;28;20021;-77
2023/08/30 05:36:16;;;;;;;1.73;0.95;;;;;;;15.20;100.00;99944.66;5009949;28;20032;-77
2023/08/30 05:38:42;;;;;;;2.33;1.10;;;;;;;15.20;100.00;99953.03;5003672;28;20033;-77
2023/08/30 05:41:07;;;;;;;2.03;0.85;;;;;;;15.21;100.00;99951.91;5037975;28;20032;-77
2023/08/30 05:43:33;;;;;;;2.92;1.00;;;;;;;15.20;100.00;99944.66;4984708;28;20029;-77
2023/08/30 05:46:02;;;;;;;1.95;0.93;;;;;;;15.22;100.00;99942.34;5014265;28;20041;-78
2023/08/30 05:48:28;;;;;;;3.65;0.88;;;;;;;15.19;100.00;99945.81;5016883;28;20102;-77
2023/08/30 05:50:54;;;;;;;2.22;1.00;;;;;;;15.20;100.00;99947.44;5020372;28;20026;-77
2023/08/30 05:53:19;;;;;;;3.58;1.55;;;;;;;15.22;100.00;99945.13;5036450;28;20037;-77
2023/08/30 05:55:45;;;;;;;4.80;1.02;;;;;;;15.19;100.00;99943.84;5019942;28;20489;-77
2023/08/30 05:58:10;;;;;;;2.83;1.20;;;;;;;15.17;100.00;99945.31;4981844;28;20025;-77
2023/08/30 06:00:36;;;;;;;3.47;1.02;;;;;;;15.21;100.00;99943.50;5045659;28;20397;-77
2023/08/30 06:03:02;;;;;;;2.53;1.10;;;;;;;15.21;100.00;99949.09;5019843;28;20021;-77
2023/08/30 06:05:28;;;;;;;2.42;1.25;;;;;;;15.19;100.00;99948.63;5019855;28;20085;-77
2023/08/30 06:07:54;;;;;;;2.53;1.10;;;;;;;15.22;100.00;99947.94;5016232;28;20386;-77
2023/08/30 06:10:19;;;;;;;3.35;1.20;;;;;;;15.25;100.00;99946.44;4978940;28;20037;-77
2023/08/30 06:12:45;;;;;;;8.52;1.25;;;;;;;15.24;100.00;99951.22;5041211;28;20047;-77
2023/08/30 06:15:10;;;;;;;3.55;1.00;;;;;;;15.23;100.00;99949.56;4991432;28;20036;-77
2023/08/30 06:17:35;;;;;;;4.38;1.10;;;;;;;15.25;100.00;99961.25;5016395;28;20034;-77
2023/08/30 06:20:01;;;;;;;3.72;1.00;;;;;;;15.28;100.00;99968.13;5000012;28;20033;-77
2023/08/30 06:22:27;;;;;;;2.53;1.10;;;;;;;15.26;100.00;99962.06;5007347;28;20406;-77
2023/08/30 06:24:52;;;;;;;2.30;1.05;;;;;;;15.24;100.00;99967.16;5044739;28;20040;-77
2023/08/30 06:27:18;;;;;;;2.92;0.80;;;;;;;15.28;100.00;99966.16;5019430;28;20025;-77
2023/08/30 06:29:43;;;;;;;3.25;1.00;;;;;;;15.29;100.00;99964.16;5019905;28;20116;-77
2023/08/30 06:32:08;;;;;;;3.60;1.15;;;;;;;15.29;100.00;99966.97;5019556;28;20548;-77
2023/08/30 06:34:34;;;;;;;2.67;1.00;;;;;;;15.33;100.00;99974.34;5020021;28;20025;-77
2023/08/30 06:36:59;;;;;;;2.38;1.00;;;;;;;15.33;100.00;99979.94;5036039;28;20034;-77
2023/08/30 06:39:25;;;;;;;3.00;1.10;;;;;;;15.36;100.00;99976.47;5019611;28;20030;-77
2023/08/30 06:41:50;;;;;;;4.38;1.05;;;;;;;15.38;100.00;99976.97;5019834;28;20478;-77
2023/08/30 06:44:16;;;;;;;3.15;1.10;;;;;;;15.37;100.00;99972.50;5007533;28;20044;-77
2023/08/30 06:46:42;;;;;;;2.92;0.90;;;;;;;15.41;100.00;99976.28;5039603;28;20052;-77
2023/08/30 06:49:09;;;;;;;5.85;1.00;;;;;;;15.42;100.00;99974.28;5036799;28;20030;-77
2023/08/30 06:51:35;;;;;;;2.42;1.08;;;;;;;15.47;100.00;99979.69;5020093;28;20030;-77
2023/08/30 06:54:00;;;;;;;2.90;1.20;;;;;;;15.48;100.00;99977.72;5025731;28;20040;-77
2023/08/30 06:56:26;;;;;;;2.55;0.90;;;;;;;15.52;100.00;99981.47;5039961;28;20028;-77
2023/08/30 06:58:52;;;;;;;2.97;1.27;;;;;;;15.56;100.00;99985.22;5011816;28;20068;-78
2023/08/30 07:01:17;;;;;;;4.93;1.13;;;;;;;15.57;100.00;99982.09;5005353;28;20436;-78
2023/08/30 07:03:43;;;;;;;5.75;1.30;;;;;;;15.60;100.00;99988.97;5023262;28;20085;-78
2023/08/30 07:06:09;;;;;;;3.50;0.90;;;;;;;15.64;100.00;99993.56;5019438;28;20030;-78
2023/08/30 07:08:35;;;;;;;3.22;1.05;;;;;;;15.67;100.00;99983.66;4990911;28;20051;-78
2023/08/30 07:11:00;;;;;;;6.10;1.40;;;;;;;15.70;100.00;99990.59;4988937;28;20022;-78
2023/08/30 07:13:26;;;;;;;2.55;1.20;;;;;;;15.74;100.00;99991.53;5039591;28;20033;-78
2023/08/30 07:15:51;;;;;;;2.65;1.15;;;;;;;15.76;100.00;99989.22;5052787;28;20040;-78
2023/08/30 07:18:17;;;;;;;3.53;1.20;;;;;;;15.80;100.00;99988.19;5006683;28;20034;-77
2023/08/30 07:20:42;;;;;;;3.33;1.33;;;;;;;15.83;100.00;99990.31;5040521;28;20040;-77
2023/08/30 07:23:08;;;;;;;4.00;1.30;;;;;;;15.89;100.00;99995.72;5001443;28;20046;-77
2023/08/30 07:25:33;;;;;;;5.25;1.38;;;;;;;15.95;100.00;99999.94;5002752;28;20076;-77
2023/08/30 07:28:02;;;;;;;5.10;1.20;;;;;;;16.01;100.00;100001.38;5033574;28;20033;-77
2023/08/30 07:30:29;;;;;;;4.63;1.55;;;;;;;16.10;100.00;100013.31;5038250;28;20124;-77
2023/08/30 07:32:54;;;;;;;3.45;1.10;;;;;;;16.21;100.00;100005.28;5040270;28;20033;-77
2023/08/30 07:35:20;;;;;;;5.22;1.30;;;;;;;16.33;100.00;100012.94;5005029;28;20025;-77
2023/08/30 07:37:45;;;;;;;3.50;1.40;;;;;;;16.48;100.00;100012.28;5026717;28;20037;-77
2023/08/30 07:40:12;;;;;;;4.82;1.50;;;;;;;16.63;100.00;100003.22;5021825;28;20036;-77
2023/08/30 07:42:38;;;;;;;7.03;1.67;;;;;;;16.78;100.00;100001.75;5002904;28;20038;-77
2023/08/30 07:45:06;;;;;;;5.57;1.60;;;;;;;16.96;100.00;100011.56;5010759;28;20030;-77
2023/08/30 07:47:32;;;;;;;4.00;1.50;;;;;;;17.14;100.00;100003.78;5038814;28;20173;-77
2023/08/30 07:49:57;;;;;;;3.15;1.15;;;;;;;17.33;100.00;100005.19;5022665;28;20037;-77
2023/08/30 07:52:23;;;;;;;4.40;1.27;;;;;;;17.49;100.00;100006.06;5005412;28;20497;-77
2023/08/30 07:54:48;;;;;;;6.53;1.52;;;;;;;17.69;100.00;100006.28;4995268;28;20513;-77
2023/08/30 07:57:14;;;;;;;3.60;1.40;;;;;;;17.86;100.00;100011.66;5019167;28;20042;-77
2023/08/30 07:59:40;;;;;;;4.90;1.60;;;;;;;17.98;100.00;100008.81;5024114;28;20025;-77
2023/08/30 08:02:06;;;;;;;4.85;1.58;;;;;;;18.17;100.00;100010.16;5016389;28;20036;-77
2023/08/30 08:04:32;;;;;;;6.15;1.67;;;;;;;18.30;100.00;100008.91;5005771;28;20021;-77
2023/08/30 08:06:57;;;;;;;6.70;1.88;;;;;;;18.39;100.00;100012.41;5005133;28;20059;-77
2023/08/30 08:09:23;;;;;;;5.57;1.65;;;;;;;18.50;100.00;100007.88;5019625;28;20033;-77
2023/08/30 08:11:49;;;;;;;6.45;2.00;;;;;;;18.59;100.00;100004.09;5002311;28;20112;-77
2023/08/30 08:14:14;;;;;;;6.80;1.50;;;;;;;18.68;100.00;100013.19;5022020;28;20025;-77
2023/08/30 08:16:40;;;;;;;4.70;1.77;;;;;;;18.81;100.00;100002.69;5037981;28;20079;-77
2023/08/30 08:19:06;;;;;;;5.18;1.48;;;;;;;18.94;100.00;100012.66;5018197;28;20037;-77
2023/08/30 08:21:35;;;;;;;5.20;1.58;;;;;;;19.03;100.00;100013.31;5018983;28;20038;-77
2023/08/30 08:24:01;;;;;;;6.05;1.73;;;;;;;19.10;100.00;100012.69;5038791;28;20025;-77
2023/08/30 08:26:26;;;;;;;6.72;1.65;;;;;;;19.25;100.00;100013.84;5018316;28;20033;-77
2023/08/30 08:28:53;;;;;;;7.15;1.85;;;;;;;19.36;100.00;100017.72;5030151;28;20129;-77
2023/08/30 08:31:18;;;;;;;8.52;1.65;;;;;;;19.47;100.00;100020.81;4997992;28;20034;-77
2023/08/30 08:33:51;;;;;;;4.72;1.70;;;;;;;19.56;100.00;100018.63;5038033;28;20029;-77
2023/08/30 08:36:16;;;;;;;6.43;2.40;;;;;;;19.64;100.00;100015.59;4990038;28;20045;-77
2023/08/30 08:38:42;;;;;;;6.70;2.08;;;;;;;19.55;100.00;100012.16;5021569;28;20472;-77
2023/08/30 08:41:08;;;;;;;6.88;1.83;;;;;;;19.73;100.00;100023.88;5034253;28;20037;-77
2023/08/30 08:43:36;;;;;;;5.82;1.83;;;;;;;19.80;100.00;100012.75;5016904;28;20363;-77
2023/08/30 08:46:02;;;;;;;7.68;2.10;;;;;;;19.94;100.00;100017.06;5037538;28;20029;-77
2023/08/30 08:48:28;;;;;;;5.00;1.88;;;;;;;19.96;100.00;100023.97;5010743;28;20032;-78
2023/08/30 08:50:55;;;;;;;7.47;1.75;;;;;;;20.09;100.00;100031.13;4986457;28;20034;-77
2023/08/30 08:53:21;;;;;;;7.13;2.20;;;;;;;20.12;100.00;100035.19;5021162;28;20063;-77
2023/08/30 08:55:46;;;;;;;4.35;1.60;;;;;;;20.29;100.00;100033.94;5032469;28;20057;-77
2023/08/30 08:58:12;;;;;;;5.35;1.75;;;;;;;20.44;100.00;100035.84;5029534;28;20025;-77
2023/08/30 09:00:38;;;;;;;4.57;1.63;;;;;;;20.56;100.00;100034.91;4997454;28;20563;-77
2023/08/30 09:03:05;;;;;;;5.75;1.85;;;;;;;20.72;100.00;100038.44;5020680;28;20121;-77
2023/08/30 09:05:30;;;;;;;6.05;1.85;;;;;;;20.83;100.00;100029.34;5019735;28;20155;-77
2023/08/30 09:07:56;;;;;;;5.20;2.03;;;;;;;20.97;100.00;100021.94;5020502;28;20033;-77
2023/08/30 09:10:21;;;;;;;5.70;1.83;;;;;;;21.19;100.00;100033.63;5012083;28;20101;-77
2023/08/30 09:12:47;;;;;;;4.32;1.63;;;;;;;21.27;100.00;100028.91;5038093;28;20033;-77
2023/08/30 09:15:13;;;;;;;6.55;1.73;;;;;;;21.36;100.00;100026.63;5037874;28;20037;-77
2023/08/30 09:17:39;;;;;;;6.03;1.70;;;;;;;21.48;100.00;100026.47;5038315;28;20394;-78
2023/08/30 09:20:11;;;;;;;6.05;1.70;;;;;;;21.62;100.00;100032.34;5001074;28;20034;-77
2023/08/30 09:22:37;;;;;;;;;;;;;;;21.77;100.00;100027.69;5008596;28;20089;-78
2023/08/30 09:25:03;;;;;;;4.22;1.73;;;;;;;21.88;100.00;100033.50;5036704;28;20399;-79
2023/08/30 09:27:33;;;;;;;4.05;1.80;;;;;;;21.97;100.00;100036.84;5037926;28;20037;-78
2023/08/30 09:29:59;;;;;;;3.88;1.60;;;;;;;22.01;100.00;100036.94;4985064;28;20058;-78
2023/08/30 09:32:24;;;;;;;5.50;1.60;;;;;;;22.01;100.00;100042.59;5020199;28;20076;-78
2023/08/30 09:34:50;;;;;;;6.47;1.67;;;;;;;21.97;100.00;100053.00;5033952;28;20028;-78
2023/08/30 09:37:22;;;;;;;4.82;2.10;;;;;;;21.92;100.00;100062.63;5031375;28;20022;-78
2023/08/30 09:39:50;;;;;;;3.80;1.53;;;;;;;21.86;100.00;100062.16;5027899;28;20367;-78
2023/08/30 09:42:20;;;;;;;3.30;1.65;;;;;;;21.77;100.00;100055.97;5004073;28;20117;-78
2023/08/30 09:44:45;;;;;;;5.15;1.80;;;;;;;21.74;100.00;100050.25;5034700;28;20045;-78
2023/08/30 09:47:12;;;;;;;5.15;2.05;;;;;;;21.66;100.00;100048.53;4983662;28;20038;-78
2023/08/30 09:49:45;;;;;;;5.85;1.83;;;;;;;21.63;100.00;100045.25;5016888;28;20040;-78
2023/08/30 09:52:12;;;;;;;7.85;1.60;;;;;;;21.58;100.00;100039.94;5020086;28;20072;-78
2023/08/30 09:54:41;;;;;;;6.35;1.75;;;;;;;21.60;100.00;100040.38;5003700;28;20547;-78
2023/08/30 09:57:07;;;;;;;3.83;1.60;;;;;;;21.62;100.00;100035.16;5024929;28;20025;-78
2023/08/30 09:59:32;;;;;;;4.30;1.42;;;;;;;21.69;100.00;100027.97;5029490;28;20022;-78
2023/08/30 10:02:00;;;;;;;7.85;1.60;;;;;;;21.69;100.00;100027.97;5010331;28;20029;-78
2023/08/30 10:04:25;;;;;;;5.53;1.85;;;;;;;21.73;100.00;100031.66;5016586;28;20462;-78
2023/08/30 10:06:51;;;;;;;3.53;1.67;;;;;;;21.81;100.00;100033.41;5015803;28;20084;-78
2023/08/30 10:09:17;;;;;;;5.38;1.75;;;;;;;21.84;100.00;100030.66;5016562;28;20041;-78
2023/08/30 10:11:42;;;;;;;6.38;1.65;;;;;;;21.86;100.00;100033.88;5024191;28;20502;-78
2023/08/30 10:14:08;;;;;;;5.18;1.70;;;;;;;21.88;100.00;100038.34;5033809;28;20044;-78
2023/08/30 10:16:47;;;;;;;5.55;1.45;;;;;;;21.88;100.00;100041.19;5025024;28;20022;-78
2023/08/30 10:19:24;;;;;;;5.40;1.42;;;;;;;21.91;100.00;100049.69;5035442;28;20112;-78
2023/08/30 10:22:08;;;;;;;5.15;1.45;;;;;;;21.98;100.00;100049.81;5021046;28;20091;-78
2023/08/30 10:24:44;;;;;;;4.25;1.67;;;;;;;22.03;100.00;100035.31;5036223;28;20033;-77
2023/08/30 10:27:09;;;;;;;5.93;1.73;;;;;;;22.09;100.00;100036.63;5010301;28;20079;-78
2023/08/30 10:29:35;;;;;;;3.10;1.60;;;;;;;22.14;100.00;100040.31;5030770;28;20446;-78
2023/08/30 10:32:04;;;;;;;3.80;1.50;;;;;;;22.16;100.00;100050.03;5019160;28;20052;-78
2023/08/30 10:34:37;;;;;;;3.35;1.70;;;;;;;22.22;100.00;100044.91;5003004;28;20026;-78
2023/08/30 10:37:05;;;;;;;2.28;1.33;;;;;;;22.25;100.00;100042.09;5041995;28;20033;-77
2023/08/30 10:39:41;;;;;;;4.18;1.85;;;;;;;22.29;100.00;100048.63;5041728;28;20108;-78
2023/08/30 10:42:11;;;;;;;5.55;1.35;;;;;;;22.36;100.00;100055.56;5011545;28;20033;-77
2023/08/30 10:44:50;;;;;;;6.63;1.73;;;;;;;22.38;100.00;100045.50;5019858;28;20037;-77
2023/08/30 10:47:37;;;;;;;5.32;1.80;;;;;;;22.43;100.00;100053.66;5035762;28;20068;-77
2023/08/30 10:50:10;;;;;;;2.35;1.20;;;;;;;22.49;100.00;100062.63;5007466;28;20040;-77
2023/08/30 10:52:36;;;;;;;5.78;1.52;;;;;;;22.51;100.00;100048.88;5036658;28;20034;-78
2023/08/30 10:55:06;;;;;;;6.07;1.80;;;;;;;22.62;98.96;100049.00;4999441;28;20080;-78
2023/08/30 10:57:33;;;;;;;4.88;1.83;;;;;;;22.67;91.19;100049.47;5031375;28;20052;-77
2023/08/30 11:00:11;;;;;;;6.20;1.73;;;;;;;22.80;91.68;100049.22;5023340;28;20037;-78
2023/08/30 11:02:37;;;;;;;6.43;1.75;;;;;;;22.88;91.41;100045.25;5023286;28;20066;-78
2023/08/30 11:05:03;;;;;;;5.88;1.92;;;;;;;22.96;91.28;100047.78;5016124;28;20038;-77
2023/08/30 11:07:29;;;;;;;7.00;1.80;;;;;;;23.05;89.92;100026.84;5015844;28;20065;-77
2023/08/30 11:09:54;;;;;;;8.02;2.20;;;;;;;23.13;86.49;100028.53;5019427;28;20049;-78
2023/08/30 11:12:23;;;;;;;6.75;1.98;;;;;;;23.23;83.62;100022.13;5019290;28;20033;-78
2023/08/30 11:14:49;;;;;;;8.43;2.05;;;;;;;23.36;84.15;100028.31;5003519;28;20033;-78
2023/08/30 11:17:18;;;;;;;4.85;2.00;;;;;;;23.42;83.48;100030.38;5019195;28;20033;-78
2023/08/30 11:19:44;;;;;;;8.73;2.08;;;;;;;23.61;78.05;100017.16;5013103;28;20030;-78